Time;durP1;ratioP1;P1;durP2;ratioP2;P2;SDS_P1;SDS_P2;PMS_P1;PMS_P2;Temp;Humidity;BMP_temperature;BMP_pressure;BME280_temperature;BME280_humidity;BME280_pressure;Samples;Min_cycle;Max_cycle;Signal;HPM_P1;HPM_P2
2022/11/26 00:01:14;;;;;;;38.53;20.80;;;6.70;99.90;;;;;;20984436;28;20578;-73
2022/11/26 00:11:16;;;;;;;33.43;19.93;;;6.50;99.90;;;;;;20983727;28;20216;-73
2022/11/26 00:21:24;;;;;;;36.37;19.20;;;6.50;99.90;;;;;;20983221;28;20679;-74
2022/11/26 00:31:27;;;;;;;38.17;20.07;;;6.30;99.90;;;;;;20982040;28;20220;-74
2022/11/26 00:41:32;;;;;;;36.70;17.80;;;6.30;99.90;;;;;;20981219;28;20208;-74
2022/11/26 00:51:34;;;;;;;29.50;17.23;;;6.20;99.90;;;;;;20980327;28;20236;-74
2022/11/26 01:01:36;;;;;;;23.87;12.00;;;6.20;99.90;;;;;;20979415;28;20228;-74
2022/11/26 01:11:38;;;;;;;20.80;10.30;;;6.30;99.90;;;;;;20928826;28;20706;-75
2022/11/26 01:21:40;;;;;;;23.13;10.30;;;6.50;99.90;;;;;;20923603;28;20209;-76
2022/11/26 01:31:42;;;;;;;16.60;7.53;;;6.70;99.90;;;;;;20922578;28;20234;-73
2022/11/26 01:42:04;;;;;;;20.57;7.80;;;7.00;99.90;;;;;;20921897;28;20680;-72
2022/11/26 01:52:19;;;;;;;13.20;6.60;;;7.20;99.90;;;;;;20921191;28;20709;-75
2022/11/26 02:02:24;;;;;;;15.33;6.90;;;7.20;99.90;;;;;;20920122;28;20689;-75
2022/11/26 02:12:26;;;;;;;23.13;7.97;;;7.30;99.90;;;;;;20919358;28;20619;-76
2022/11/26 02:22:49;;;;;;;16.80;7.40;;;7.30;99.90;;;;;;20917821;28;20210;-75
2022/11/26 02:32:52;;;;;;;15.57;8.30;;;;;;;;;;20917634;28;20592;-74
2022/11/26 02:42:53;;;;;;;17.73;8.40;;;7.30;99.90;;;;;;20916579;28;20222;-73
2022/11/26 02:52:57;;;;;;;23.23;9.97;;;7.40;99.90;;;;;;20916039;28;20247;-72
2022/11/26 03:03:21;;;;;;;17.67;7.33;;;7.50;99.90;;;;;;20915412;28;20205;-75
2022/11/26 03:13:23;;;;;;;12.07;6.17;;;7.60;99.90;;;;;;20914745;28;20240;-76
2022/11/26 03:29:09;;;;;;;10.70;5.17;;;7.70;99.90;;;;;;20984574;28;20579;-70
2022/11/26 03:39:10;;;;;;;15.20;5.17;;;7.80;99.90;;;;;;20983588;28;20222;-71
2022/11/26 03:49:12;;;;;;;13.60;5.00;;;7.90;99.90;;;;;;20983317;28;20272;-71
2022/11/26 03:59:14;;;;;;;19.00;5.20;;;7.90;99.90;;;;;;20982070;28;20261;-72
2022/11/26 04:09:15;;;;;;;13.47;4.80;;;8.00;99.90;;;;;;20981223;28;20796;-73
2022/11/26 04:19:17;;;;;;;16.37;5.40;;;8.00;99.90;;;;;;20980642;28;20210;-71
2022/11/26 04:29:19;;;;;;;18.40;5.40;;;8.00;99.90;;;;;;20979471;28;20211;-71
2022/11/26 04:39:21;;;;;;;13.63;4.60;;;8.00;99.90;;;;;;20930407;28;20667;-70
2022/11/26 04:49:22;;;;;;;15.17;4.67;;;8.00;99.90;;;;;;20923818;28;20208;-71
2022/11/26 04:59:26;;;;;;;20.00;5.57;;;8.20;99.90;;;;;;20923551;28;20204;-73
2022/11/26 05:09:28;;;;;;;12.40;4.87;;;8.10;99.90;;;;;;20922175;28;20278;-71
2022/11/26 05:19:30;;;;;;;12.53;5.07;;;7.90;99.90;;;;;;20921090;28;20232;-71
2022/11/26 05:29:32;;;;;;;16.83;5.30;;;7.80;99.90;;;;;;20920000;28;20269;-71
2022/11/26 05:39:33;;;;;;;17.93;5.37;;;7.70;99.90;;;;;;20919316;28;20211;-71
2022/11/26 05:49:35;;;;;;;14.50;5.63;;;7.60;99.90;;;;;;20917911;28;20264;-72
2022/11/26 05:59:37;;;;;;;11.90;5.40;;;7.30;99.90;;;;;;20917690;28;20272;-74
2022/11/26 06:09:39;;;;;;;12.33;4.83;;;7.20;99.90;;;;;;20917041;28;20265;-76
2022/11/26 06:19:41;;;;;;;22.17;6.70;;;7.00;99.90;;;;;;20916202;28;20274;-74
2022/11/26 06:29:43;;;;;;;27.97;8.20;;;6.80;99.90;;;;;;20913075;28;20206;-74
2022/11/26 06:39:45;;;;;;;14.90;7.23;;;;;;;;;;20914115;28;20237;-74
2022/11/26 06:49:47;;;;;;;16.73;7.80;;;6.50;99.90;;;;;;20913943;28;20224;-76
2022/11/26 06:59:50;;;;;;;16.90;6.50;;;6.40;99.90;;;;;;20912627;28;20238;-74
2022/11/26 07:19:50;;;;;;;22.73;7.70;;;6.40;99.90;;;;;;21068545;28;20353;-73
2022/11/26 07:29:52;;;;;;;18.77;8.33;;;6.30;99.90;;;;;;20982855;28;20278;-71
2022/11/26 07:39:53;;;;;;;17.50;8.37;;;6.20;99.90;;;;;;20982168;28;20766;-75
2022/11/26 07:49:55;;;;;;;18.50;11.10;;;;;;;;;;20981918;28;20678;-73
2022/11/26 07:59:57;;;;;;;23.90;11.80;;;6.40;99.90;;;;;;20980569;28;20212;-76
2022/11/26 08:09:59;;;;;;;28.70;14.50;;;6.50;99.90;;;;;;20913324;28;20219;-76
2022/11/26 08:20:01;;;;;;;76.10;25.67;;;;;;;;;;21062710;28;20212;-76
2022/11/26 08:30:04;;;;;;;44.10;18.97;;;7.00;99.90;;;;;;21012278;28;20207;-76
2022/11/26 08:40:06;;;;;;;35.00;16.67;;;7.20;99.90;;;;;;21005382;28;20270;-76
2022/11/26 08:50:09;;;;;;;28.23;14.63;;;7.40;99.90;;;;;;21004695;28;20218;-76
2022/11/26 09:00:11;;;;;;;30.63;13.10;;;7.70;99.90;;;;;;21003911;28;20233;-82
2022/11/26 09:10:13;;;;;;;29.10;15.20;;;7.90;99.90;;;;;;21002737;28;20320;-79
2022/11/26 09:20:14;;;;;;;46.87;22.67;;;8.20;99.90;;;;;;21002300;28;20208;-81
2022/11/26 09:30:17;;;;;;;75.97;32.50;;;8.40;99.90;;;;;;20998920;28;20208;-80
2022/11/26 09:40:20;;;;;;;41.80;20.70;;;8.60;99.90;;;;;;20999462;28;20218;-80
2022/11/26 09:50:30;;;;;;;31.63;15.10;;;8.70;99.90;;;;;;20999963;28;20760;-80
2022/11/26 10:00:37;;;;;;;28.87;12.47;;;8.90;99.90;;;;;;21000007;28;20265;-80
2022/11/26 10:11:04;;;;;;;148.30;56.20;;;9.10;99.90;;;;;;20997845;28;20235;-79
2022/11/26 10:21:05;;;;;;;26.40;12.83;;;9.30;99.90;;;;;;21000669;28;20614;-80
2022/11/26 10:31:22;;;;;;;14.70;7.10;;;9.50;99.90;;;;;;21082552;28;20711;-83
2022/11/26 10:41:27;;;;;;;17.20;7.87;;;9.60;99.90;;;;;;21080928;28;20625;-76
2022/11/26 10:51:32;;;;;;;15.67;7.20;;;9.50;99.90;;;;;;21078965;28;20271;-72
2022/11/26 11:01:38;;;;;;;16.30;7.90;;;9.50;99.90;;;;;;21078925;28;20264;-74
2022/11/26 11:11:40;;;;;;;12.40;6.00;;;9.50;99.90;;;;;;21077978;28;20244;-72
2022/11/26 11:21:44;;;;;;;13.80;7.00;;;9.60;99.90;;;;;;21078336;28;20234;-72
2022/11/26 11:31:49;;;;;;;12.50;6.23;;;9.90;99.90;;;;;;21077131;28;20271;-74
2022/11/26 11:41:51;;;;;;;15.57;6.40;;;10.00;99.90;;;;;;21077417;28;20239;-75
2022/11/26 11:52:10;;;;;;;12.53;6.93;;;10.10;99.90;;;;;;21052730;28;20234;-73
2022/11/26 12:02:30;;;;;;;13.83;7.80;;;10.40;99.90;;;;;;21028894;28;20822;-72
2022/11/26 12:12:37;;;;;;;16.47;7.30;;;10.80;99.30;;;;;;21072106;28;20727;-73
2022/11/26 12:22:46;;;;;;;16.13;7.00;;;10.60;99.80;;;;;;21083126;28;20742;-73
2022/11/26 12:33:14;;;;;;;14.43;6.53;;;10.80;99.80;;;;;;21009836;28;20231;-79
2022/11/26 12:43:55;;;;;;;14.90;7.27;;;11.30;99.60;;;;;;21088023;28;20206;-77
2022/11/26 12:54:24;;;;;;;11.67;6.03;;;11.50;98.30;;;;;;21088147;28;20655;-78
2022/11/26 13:04:27;;;;;;;14.70;6.77;;;11.40;98.60;;;;;;21015775;28;20202;-78
2022/11/26 13:14:53;;;;;;;13.63;6.70;;;11.10;98.50;;;;;;21002744;28;20246;-75
2022/11/26 13:25:07;;;;;;;16.73;7.10;;;10.90;98.40;;;;;;21002484;28;20566;-76
2022/11/26 13:35:27;;;;;;;17.07;8.80;;;10.80;98.70;;;;;;21002046;28;20242;-81
2022/11/26 13:45:59;;;;;;;14.60;8.63;;;10.70;98.90;;;;;;21001097;28;20207;-81
2022/11/26 13:56:05;;;;;;;21.17;8.80;;;10.60;99.00;;;;;;21001509;28;20238;-73
2022/11/26 14:06:07;;;;;;;18.17;9.50;;;10.60;99.10;;;;;;21082967;28;20264;-78
2022/11/26 14:16:09;;;;;;;20.93;9.10;;;10.50;99.40;;;;;;21082081;28;20253;-79
2022/11/26 14:26:33;;;;;;;15.43;8.40;;;10.40;99.50;;;;;;21083097;28;20214;-79
2022/11/26 14:36:35;;;;;;;18.77;9.47;;;10.30;99.80;;;;;;21082316;28;20750;-74
2022/11/26 14:46:38;;;;;;;20.97;9.53;;;10.30;99.90;;;;;;21079785;28;20610;-75
2022/11/26 14:56:41;;;;;;;18.17;9.30;;;10.20;99.90;;;;;;21072302;28;20222;-75
2022/11/26 15:06:47;;;;;;;23.67;9.23;;;10.20;99.90;;;;;;20996063;28;20212;-76
2022/11/26 15:16:56;;;;;;;20.63;10.63;;;10.10;99.90;;;;;;20976655;28;20601;-75
2022/11/26 15:26:58;;;;;;;13.57;7.33;;;9.80;99.90;;;;;;20994100;28;20627;-75
2022/11/26 15:37:00;;;;;;;16.27;7.90;;;10.00;99.90;;;;;;21001214;28;20240;-77
2022/11/26 15:47:02;;;;;;;15.17;7.80;;;9.70;99.90;;;;;;21010340;28;20653;-78
2022/11/26 15:57:07;;;;;;;15.00;8.53;;;9.70;99.90;;;;;;21019762;28;20701;-79
2022/11/26 16:07:15;;;;;;;15.37;9.27;;;9.40;99.90;;;;;;21093238;28;20214;-81
2022/11/26 16:17:18;;;;;;;18.13;9.83;;;9.30;99.90;;;;;;21091389;28;20240;-76
2022/11/26 16:27:20;;;;;;;21.30;11.43;;;9.20;99.90;;;;;;21090692;28;20214;-85
2022/11/26 16:37:29;;;;;;;19.13;11.33;;;9.10;99.90;;;;;;21089947;28;20230;-77
2022/11/26 16:47:34;;;;;;;20.77;10.80;;;9.20;99.90;;;;;;21018169;28;20644;-81
2022/11/26 16:57:37;;;;;;;16.53;9.90;;;9.10;99.90;;;;;;21020017;28;20231;-78
2022/11/26 17:07:47;;;;;;;21.57;10.70;;;9.00;99.90;;;;;;21087650;28;20234;-74
2022/11/26 17:17:51;;;;;;;22.27;11.00;;;9.00;99.90;;;;;;21087033;28;20294;-75
2022/11/26 17:27:52;;;;;;;21.13;11.03;;;9.00;99.90;;;;;;21085944;28;20218;-77
2022/11/26 17:37:54;;;;;;;30.47;14.67;;;8.80;99.90;;;;;;21085035;28;20241;-75
2022/11/26 17:47:56;;;;;;;23.93;13.40;;;8.70;99.90;;;;;;21084891;28;20200;-76
2022/11/26 17:57:57;;;;;;;24.43;12.57;;;8.70;99.90;;;;;;21065382;28;20284;-75
2022/11/26 18:07:59;;;;;;;20.10;12.30;;;8.60;99.90;;;;;;20999288;28;20241;-76
2022/11/26 18:18:01;;;;;;;21.00;13.20;;;8.40;99.90;;;;;;20998073;28;20239;-76
2022/11/26 18:28:03;;;;;;;28.60;15.07;;;8.30;99.90;;;;;;20997557;28;20260;-76
2022/11/26 18:38:08;;;;;;;27.27;16.83;;;8.10;99.90;;;;;;20997032;28;20361;-76
2022/11/26 18:48:09;;;;;;;29.07;17.27;;;7.80;99.90;;;;;;20996977;28;20213;-77
2022/11/26 18:58:12;;;;;;;34.17;17.87;;;7.70;99.90;;;;;;21014654;28;20226;-78
2022/11/26 19:08:14;;;;;;;35.23;19.27;;;7.60;99.90;;;;;;21077021;28;20658;-76
2022/11/26 19:18:16;;;;;;;32.87;20.80;;;7.60;99.90;;;;;;21075010;28;20246;-74
2022/11/26 19:28:18;;;;;;;35.20;19.90;;;7.30;99.90;;;;;;21077780;28;20202;-75
2022/11/26 19:38:20;;;;;;;43.53;22.30;;;7.30;99.90;;;;;;21077510;28;20236;-76
2022/11/26 19:48:21;;;;;;;41.83;22.47;;;7.00;99.90;;;;;;21077605;28;20614;-75
2022/11/26 19:58:23;;;;;;;38.63;23.43;;;7.00;99.90;;;;;;21076735;28;20242;-75
2022/11/26 20:08:25;;;;;;;43.80;25.57;;;6.70;99.90;;;;;;21079957;28;20244;-74
2022/11/26 20:18:27;;;;;;;49.97;28.60;;;;;;;;;;21076758;28;20244;-73
2022/11/26 20:28:29;;;;;;;51.23;29.70;;;6.70;99.90;;;;;;21088791;28;20225;-73
2022/11/26 20:38:30;;;;;;;51.90;28.43;;;6.30;99.90;;;;;;21087525;28;20233;-74
2022/11/26 20:48:34;;;;;;;38.50;20.73;;;6.10;99.90;;;;;;21087557;28;20231;-76
2022/11/26 20:58:35;;;;;;;41.53;22.43;;;6.00;99.90;;;;;;21085833;28;20250;-74
2022/11/26 21:08:38;;;;;;;47.20;22.90;;;6.00;99.90;;;;;;21067778;28;20204;-74
2022/11/26 21:18:40;;;;;;;41.87;23.13;;;5.80;99.90;;;;;;21084902;28;20244;-75
2022/11/26 21:28:42;;;;;;;47.57;22.50;;;5.70;99.90;;;;;;21084047;28;20199;-76
2022/11/26 21:38:47;;;;;;;45.90;26.80;;;5.70;99.90;;;;;;21083012;28;20237;-76
2022/11/26 21:48:51;;;;;;;42.23;23.37;;;5.60;99.90;;;;;;21082736;28;20245;-75
2022/11/26 21:58:55;;;;;;;46.53;24.03;;;5.40;99.90;;;;;;21081592;28;20230;-75
2022/11/26 22:08:57;;;;;;;40.40;22.23;;;5.40;99.90;;;;;;21081093;28;20261;-75
2022/11/26 22:19:00;;;;;;;39.57;22.50;;;5.40;99.90;;;;;;21080202;28;20247;-75
2022/11/26 22:29:03;;;;;;;38.73;20.67;;;5.30;99.90;;;;;;21079472;28;20711;-76
2022/11/26 22:39:09;;;;;;;39.87;21.47;;;5.30;99.90;;;;;;21078792;28;20352;-76
2022/11/26 22:49:14;;;;;;;43.57;21.63;;;5.30;99.90;;;;;;21078196;28;20699;-77
2022/11/26 22:59:16;;;;;;;36.97;18.83;;;5.40;99.90;;;;;;21077674;28;20721;-77
2022/11/26 23:09:18;;;;;;;57.43;22.63;;;5.60;99.90;;;;;;21077104;28;20264;-75
2022/11/26 23:19:19;;;;;;;41.30;20.37;;;5.60;99.90;;;;;;21076577;28;20274;-76
2022/11/26 23:29:21;;;;;;;38.47;21.20;;;5.60;99.90;;;;;;21076259;28;20217;-75
2022/11/26 23:39:23;;;;;;;41.90;20.13;;;5.60;99.90;;;;;;21076188;28;20227;-77
2022/11/26 23:49:25;;;;;;;38.97;20.40;;;5.60;99.90;;;;;;21076249;28;20568;-76
2022/11/26 23:59:27;;;;;;;47.33;19.73;;;5.60;99.90;;;;;;21088365;28;20579;-74
